Flight Track Log - Related Links

Times and Time Zones

All times are in EDT time to prevent confusion due to time zone crossing. See the EJA831 flight status page for this flight to view local times or setup timezone preferences in your user account.

Time Position Orientation Groundspeed Altitude Reporting Facility
EDT Latitude Longitude Course Direction KTS MPH feet Rate Location/Type
Fri 12:47:20 PM 33.6167 -111.9333 312° West 172 198 2,400  Level Phoenix TRACON
Fri 12:48:55 PM 33.6575 -111.9886 312° West 245 282 5,400 2,178 Climbing Albuquerque Center
Fri 12:49:57 PM 33.7061 -111.9383 41° Northeast 230 265 8,100 2,371 Climbing Albuquerque Center
Fri 12:50:59 PM 33.7808 -111.8814 32° Northeast 275 316 10,300 1,887 Climbing Albuquerque Center
Fri 12:52:01 PM 33.8622 -111.8361 25° Northeast 319 367 12,000 1,935 Climbing Albuquerque Center
Fri 12:53:03 PM 33.9456 -111.7892 25° Northeast 333 383 14,300 2,274 Climbing Albuquerque Center
Fri 12:54:05 PM 34.0422 -111.7350 25° Northeast 339 390 16,700 2,226 Climbing Albuquerque Center
Fri 12:55:07 PM 34.1264 -111.6797 29° Northeast 350 403 18,900 2,081 Climbing Albuquerque Center
Fri 12:56:09 PM 34.2044 -111.6044 39° Northeast 356 410 21,000 1,790 Climbing Albuquerque Center
Fri 12:57:11 PM 34.2783 -111.5172 44° Northeast 367 422 22,600 1,452 Climbing Albuquerque Center
Fri 12:58:13 PM 34.3550 -111.4278 44° Northeast 377 434 24,000 1,403 Climbing Albuquerque Center
Fri 12:59:15 PM 34.4328 -111.3333 45° Northeast 390 449 25,500 1,500 Climbing Albuquerque Center
Fri 01:00:17 PM 34.5136 -111.2014 53° Northeast 402 463 27,100 1,645 Climbing Albuquerque Center
Fri 01:01:19 PM 34.5833 -111.0897 53° Northeast 409 471 28,900 1,790 Climbing Albuquerque Center
Fri 01:02:21 PM 34.6511 -110.9814 53° Northeast 408 470 30,800 1,548 Climbing Albuquerque Center
Fri 01:03:23 PM 34.7172 -110.8733 53° Northeast 401 461 32,100 1,065 Climbing Albuquerque Center
Fri 01:04:25 PM 34.7864 -110.7619 53° Northeast 408 470 33,000 1,065 Climbing Albuquerque Center
Fri 01:05:27 PM 34.8694 -110.6247 54° Northeast 426 490 34,300 1,500 Climbing Albuquerque Center
Fri 01:06:29 PM 34.9336 -110.5150 54° Northeast 419 482 36,100 1,500 Climbing Albuquerque Center
Fri 01:07:31 PM 35.0047 -110.3894 55° Northeast 406 467 37,400 1,161 Climbing Albuquerque Center
Fri 01:08:33 PM 35.0656 -110.2803 56° Northeast 406 467 38,500 1,104 Climbing Albuquerque Center
Fri 01:09:36 PM 35.1353 -110.1542 56° Northeast 403 464 39,700 912 Climbing Albuquerque Center
Fri 01:10:38 PM 35.1964 -110.0464 55° Northeast 403 464 40,400 581 Climbing Albuquerque Center
Fri 01:11:40 PM 35.2694 -109.9167 55° Northeast 412 474 40,900 290 Climbing Albuquerque Center
Fri 01:12:42 PM 35.3325 -109.8014 56° Northeast 421 484 41,000 48 Climbing Albuquerque Center
Fri 01:13:44 PM 35.4089 -109.6628 56° Northeast 436 502 41,000  Level Albuquerque Center
Fri 01:14:46 PM 35.4769 -109.5394 56° Northeast 450 518 41,000  Level Albuquerque Center
Fri 01:15:48 PM 35.5572 -109.3942 56° Northeast 459 528 41,000  Level Albuquerque Center
Fri 01:16:50 PM 35.6256 -109.2692 56° Northeast 461 531 41,000  Level Albuquerque Center
Fri 01:17:52 PM 35.7056 -109.1222 56° Northeast 463 533 41,000  Level Albuquerque Center
Fri 01:18:54 PM 35.7742 -108.9958 56° Northeast 466 536 41,000  Level Albuquerque Center
Fri 01:19:56 PM 35.8531 -108.8481 57° Northeast 466 536 41,000  Level Albuquerque Center
Fri 01:20:58 PM 35.9142 -108.7358 56° Northeast 468 539 41,000  Level Albuquerque Center
Fri 01:22:00 PM 35.9875 -108.6036 56° Northeast 466 536 41,000  Level Albuquerque Center
Fri 01:23:02 PM 36.0692 -108.4500 57° Northeast 466 536 41,000  Level Albuquerque Center
Fri 01:24:04 PM 36.1478 -108.3025 57° Northeast 462 532 41,000  Level Albuquerque Center
Fri 01:24:41 PM 36.1811 -108.2389 57° Northeast 461 531 41,000  Level Denver Center
Fri 01:25:43 PM 36.2597 -108.0917 56° Northeast 461 531 41,000  Level Denver Center
Fri 01:26:08 PM 36.2925 -108.0292 57° Northeast 460 529 41,000  Level Albuquerque Center
Fri 01:27:10 PM 36.3597 -107.9025 57° Northeast 459 528 41,000  Level Albuquerque Center
Fri 01:27:47 PM 36.4031 -107.8164 58° Northeast 458 527 41,000  Level Denver Center
Fri 01:29:01 PM 36.4689 -107.6886 57° Northeast 459 528 41,000  Level Denver Center
Fri 01:30:03 PM 36.5578 -107.5189 57° Northeast 459 528 41,000  Level Denver Center
Fri 01:31:05 PM 36.6353 -107.3694 57° Northeast 460 529 41,000  Level Denver Center
Fri 01:32:07 PM 36.7003 -107.2411 58° Northeast 458 527 41,000  Level Denver Center
Fri 01:33:10 PM 36.7783 -107.0917 57° Northeast 460 529 41,000  Level Denver Center
Fri 01:34:12 PM 36.8428 -106.9633 58° Northeast 457 526 41,000  Level Denver Center
Fri 01:35:26 PM 36.9197 -106.8139 57° Northeast 458 527 41,000  Level Denver Center
Fri 01:36:28 PM 36.9983 -106.6639 57° Northeast 460 529 41,000  Level Denver Center
Fri 01:37:30 PM 37.0744 -106.5122 58° Northeast 460 529 41,000  Level Denver Center
Fri 01:38:32 PM 37.1397 -106.3825 58° Northeast 461 531 41,000  Level Denver Center
Fri 01:39:34 PM 37.2144 -106.2303 58° Northeast 459 528 41,000  Level Denver Center
Fri 01:40:36 PM 37.2814 -106.1003 57° Northeast 463 533 41,000  Level Denver Center
Fri 01:41:38 PM 37.3539 -105.9478 59° Northeast 458 527 41,000  Level Denver Center
Fri 01:42:41 PM 37.4194 -105.8156 58° Northeast 464 534 41,000  Level Denver Center
Fri 01:43:43 PM 37.4947 -105.6619 58° Northeast 462 532 41,000  Level Denver Center
Fri 01:44:45 PM 37.5569 -105.5342 58° Northeast 464 534 41,000  Level Denver Center
Fri 01:45:47 PM 37.6322 -105.3800 58° Northeast 462 532 41,000  Level Denver Center
Fri 01:47:01 PM 37.6967 -105.2492 58° Northeast 460 529 41,000  Level Denver Center
Fri 01:48:03 PM 37.7825 -105.0711 59° Northeast 463 533 41,000  Level Denver Center
Fri 01:49:05 PM 37.8456 -104.9383 59° Northeast 459 528 41,000  Level Denver Center
Fri 01:50:07 PM 37.9203 -104.7839 58° Northeast 460 529 41,000  Level Denver Center
Fri 01:51:10 PM 37.9842 -104.6508 59° Northeast 460 529 41,000  Level Denver Center
Fri 01:52:12 PM 38.0589 -104.4925 59° Northeast 465 535 41,000  Level Denver Center
Fri 01:53:14 PM 38.1236 -104.3561 59° Northeast 467 537 41,000  Level Denver Center
Fri 01:54:28 PM 38.1986 -104.1958 59° Northeast 469 540 41,000  Level Denver Center
Fri 01:55:30 PM 38.2628 -104.0592 59° Northeast 468 539 41,000  Level Denver Center
Fri 01:56:32 PM 38.3483 -103.8764 59° Northeast 469 540 41,000  Level Denver Center
Fri 01:57:34 PM 38.4117 -103.7397 59° Northeast 468 539 41,000  Level Denver Center
Fri 01:58:36 PM 38.4861 -103.5783 59° Northeast 470 541 41,000  Level Denver Center
Fri 01:59:38 PM 38.5500 -103.4394 60° Northeast 472 543 41,000  Level Denver Center
Fri 02:00:52 PM 38.6164 -103.2928 60° Northeast 466 536 41,000  Level Denver Center
Fri 02:01:55 PM 38.6953 -103.1197 60° Northeast 469 540 41,000  Level Denver Center
Fri 02:02:57 PM 38.7617 -102.9744 60° Northeast 472 543 41,000  Level Denver Center
Fri 02:04:11 PM 38.8394 -102.8008 60° Northeast 472 543 41,000  Level Denver Center
Fri 02:05:13 PM 38.9175 -102.6286 60° Northeast 471 542 41,000  Level Denver Center
Fri 02:06:16 PM 38.9881 -102.4661 61° Northeast 470 541 41,000  Level Denver Center
Fri 02:07:18 PM 39.0508 -102.3239 60° Northeast 474 545 41,000  Level Denver Center
Fri 02:08:20 PM 39.1150 -102.1822 60° Northeast 476 548 41,000  Level Denver Center
Fri 02:09:34 PM 39.1878 -102.0158 61° Northeast 478 550 41,000  Level Denver Center
Fri 02:10:36 PM 39.2700 -101.8256 61° Northeast 476 548 41,000  Level Denver Center
Fri 02:11:38 PM 39.3375 -101.6714 60° Northeast 476 548 41,000  Level Denver Center
Fri 02:12:40 PM 39.3981 -101.5286 61° Northeast 475 547 41,000  Level Denver Center
Fri 02:13:42 PM 39.4703 -101.3636 60° Northeast 473 544 41,000  Level Denver Center
Fri 02:14:56 PM 39.5308 -101.2217 61° Northeast 471 542 41,000  Level Denver Center
Fri 02:15:59 PM 39.6125 -101.0303 61° Northeast 476 548 41,000  Level Denver Center
Fri 02:17:13 PM 39.6722 -100.8867 62° Northeast 474 545 41,000  Level Denver Center
Fri 02:18:15 PM 39.7528 -100.6961 61° Northeast 474 545 41,000  Level Denver Center
Fri 02:19:17 PM 39.8231 -100.5283 61° Northeast 476 548 41,000  Level Denver Center
Fri 02:20:19 PM 39.8828 -100.3850 61° Northeast 472 543 41,000  Level Denver Center
Fri 02:21:21 PM 39.9450 -100.2353 62° Northeast 475 547 41,000  Level Denver Center
Fri 02:22:23 PM 40.0069 -100.0847 62° Northeast 472 543 41,000  Level Denver Center
Fri 02:23:25 PM 40.0811 -99.9044 62° Northeast 473 544 41,000  Level Denver Center
Fri 02:24:27 PM 40.1431 -99.7531 62° Northeast 471 542 41,000  Level Denver Center
Fri 02:25:29 PM 40.2047 -99.6008 62° Northeast 473 544 41,000  Level Denver Center
Fri 02:26:31 PM 40.2653 -99.4492 62° Northeast 472 543 41,000  Level Denver Center
Fri 02:27:45 PM 40.3261 -99.2989 62° Northeast 469 540 41,000  Level Denver Center
Fri 02:28:47 PM 40.3872 -99.1464 62° Northeast 474 545 41,000  Level Denver Center
Fri 02:29:14 PM 40.4356 -99.0272 62° Northeast 472 543 41,000  Level Minneapolis Center
Fri 02:30:16 PM 40.4953 -98.8750 63° Northeast 471 542 41,000  Level Minneapolis Center
Fri 02:31:18 PM 40.5544 -98.7233 63° Northeast 470 541 41,000  Level Minneapolis Center
Fri 02:32:21 PM 40.6133 -98.5711 63° Northeast 470 541 41,000  Level Minneapolis Center
Fri 02:33:23 PM 40.6728 -98.4197 63° Northeast 470 541 41,000  Level Minneapolis Center
Fri 02:34:25 PM 40.7431 -98.2369 63° Northeast 469 540 41,000  Level Minneapolis Center
Fri 02:35:27 PM 40.8019 -98.0850 63° Northeast 469 540 41,000  Level Minneapolis Center
Fri 02:36:29 PM 40.8600 -97.9319 63° Northeast 469 540 41,000  Level Minneapolis Center
Fri 02:37:31 PM 40.9189 -97.7803 63° Northeast 467 537 41,000  Level Minneapolis Center
Fri 02:38:33 PM 40.9764 -97.6275 63° Northeast 467 537 41,000  Level Minneapolis Center
Fri 02:39:36 PM 41.0461 -97.4442 63° Northeast 466 536 41,000 288 Level Minneapolis Center
Fri 02:40:38 PM 41.0969 -97.3100 63° Northeast 464 534 41,600 629 Climbing Minneapolis Center
Fri 02:41:40 PM 41.1528 -97.1631 63° Northeast 452 520 42,300 618 Climbing Minneapolis Center
Fri 02:42:54 PM 41.2289 -96.9625 63° Northeast 437 503 43,000 309 Climbing Minneapolis Center
Fri 02:43:56 PM 41.2817 -96.8161 64° Northeast 436 502 43,000  Level Minneapolis Center
Fri 02:44:58 PM 41.3358 -96.6689 64° Northeast 439 505 43,000  Level Minneapolis Center
Fri 02:46:00 PM 41.3908 -96.5206 64° Northeast 444 511 43,000  Level Minneapolis Center
Fri 02:47:02 PM 41.4453 -96.3725 64° Northeast 442 509 43,000  Level Minneapolis Center
Fri 02:48:05 PM 41.5022 -96.2081 65° Northeast 446 513 43,000  Level Minneapolis Center
Fri 02:49:07 PM 41.5561 -96.0606 64° Northeast 444 511 43,000  Level Minneapolis Center
Fri 02:50:09 PM 41.6092 -95.9111 65° Northeast 445 512 43,000  Level Minneapolis Center
Fri 02:51:11 PM 41.6608 -95.7681 64° Northeast 444 511 43,000  Level Minneapolis Center
Fri 02:52:13 PM 41.7244 -95.5889 65° Northeast 443 510 43,000  Level Minneapolis Center
Fri 02:53:15 PM 41.7764 -95.4400 65° Northeast 441 507 43,000 48 Level Minneapolis Center
Fri 02:54:17 PM 41.8281 -95.2922 65° Northeast 439 505 43,100 387 Climbing Minneapolis Center
Fri 02:55:19 PM 41.8792 -95.1464 65° Northeast 434 499 43,800 677 Climbing Minneapolis Center
Fri 02:56:21 PM 41.9269 -95.0050 66° East 419 482 44,500 581 Climbing Minneapolis Center
Fri 02:57:23 PM 41.9764 -94.8664 64° Northeast 413 475 45,000 242 Climbing Minneapolis Center
Fri 02:58:25 PM 42.0344 -94.6950 65° Northeast 418 481 45,000  Level Minneapolis Center
Fri 02:59:27 PM 42.0836 -94.5503 65° Northeast 424 488 45,000  Level Minneapolis Center
Fri 03:00:29 PM 42.1328 -94.4039 66° East 429 494 45,000  Level Minneapolis Center
Fri 03:01:31 PM 42.1831 -94.2556 65° Northeast 434 499 45,000  Level Minneapolis Center
Fri 03:02:33 PM 42.2369 -94.0958 65° Northeast 434 499 45,000  Level Minneapolis Center
Fri 03:02:58 PM 42.2572 -94.0367 65° Northeast 435 501 45,000  Level Minneapolis Center
Fri 03:04:00 PM 42.3067 -93.8864 66° East 441 507 45,000  Level Minneapolis Center
Fri 03:05:02 PM 42.3569 -93.7364 66° East 441 507 45,000  Level Minneapolis Center
Fri 03:06:04 PM 42.3958 -93.6158 66° East 441 507 45,000  Level Minneapolis Center
Fri 03:07:07 PM 42.4633 -93.4028 67° East 443 510 45,000  Level Minneapolis Center
Fri 03:08:09 PM 42.5153 -93.2506 65° Northeast 447 514 45,000  Level Minneapolis Center
Fri 03:09:11 PM 42.5644 -93.0967 67° East 448 516 45,000  Level Minneapolis Center
Fri 03:10:13 PM 42.6142 -92.9422 66° East 447 514 45,000  Level Chicago Center
Fri 03:11:15 PM 42.6636 -92.7878 66° East 448 516 45,000  Level Chicago Center
Fri 03:12:17 PM 42.7214 -92.6036 67° East 444 511 45,000  Level Chicago Center
Fri 03:13:19 PM 42.7694 -92.4483 67° East 447 514 45,000  Level Chicago Center
Fri 03:14:21 PM 42.8186 -92.2947 66° East 446 513 45,000  Level Chicago Center
Fri 03:15:24 PM 42.8672 -92.1403 67° East 445 512 45,000  Level Chicago Center
Fri 03:16:26 PM 42.9156 -91.9850 67° East 444 511 45,000  Level Chicago Center
Fri 03:17:28 PM 42.9753 -91.7989 66° East 444 511 45,000  Level Chicago Center
Fri 03:18:30 PM 43.0233 -91.6417 67° East 444 511 45,000  Level Chicago Center
Fri 03:19:32 PM 43.0700 -91.4858 68° East 442 509 45,000  Level Chicago Center
Fri 03:20:34 PM 43.1172 -91.3308 67° East 441 507 45,000  Level Chicago Center
Fri 03:21:36 PM 43.1656 -91.1753 67° East 444 511 45,000  Level Chicago Center
Fri 03:22:50 PM 43.2200 -90.9867 68° East 444 511 45,000  Level Minneapolis Center
Fri 03:23:40 PM 43.2589 -90.8619 67° East 448 516 45,000  Level Chicago Center
Fri 03:24:42 PM 43.3131 -90.6725 68° East 449 517 45,000  Level Chicago Center
Fri 03:25:45 PM 43.3594 -90.5136 68° East 451 519 45,000  Level Chicago Center
Fri 03:26:47 PM 43.4058 -90.3550 68° East 451 519 45,000  Level Chicago Center
Fri 03:27:49 PM 43.4556 -90.1772 69° East 451 519 45,000  Level Chicago Center
Fri 03:28:51 PM 43.5019 -90.0175 68° East 450 518 45,000  Level Chicago Center
Fri 03:29:53 PM 43.5478 -89.8558 69° East 450 518 45,000  Level Chicago Center
Fri 03:30:55 PM 43.5933 -89.6953 69° East 448 516 45,000  Level Chicago Center
Fri 03:31:57 PM 43.6464 -89.5100 68° East 444 511 45,000  Level Chicago Center
Fri 03:32:59 PM 43.6911 -89.3492 69° East 448 516 45,000  Level Chicago Center
Fri 03:34:01 PM 43.7358 -89.1894 69° East 445 512 45,000  Level Chicago Center
Fri 03:35:03 PM 43.7800 -89.0308 69° East 441 507 45,000  Level Chicago Center
Fri 03:36:06 PM 43.8244 -88.8697 69° East 442 509 45,000 -480 Level Chicago Center
Fri 03:37:08 PM 43.8692 -88.7072 69° East 444 511 44,000 -1,161 Descending Chicago Center
Fri 03:38:10 PM 43.9214 -88.5083 70° East 463 533 42,600 -1,258 Descending Chicago Center
Fri 03:39:12 PM 43.9639 -88.3492 70° East 447 514 41,400 -1,258 Descending Chicago Center
Fri 03:40:14 PM 44.0111 -88.1992 66° East 428 493 40,000 -1,459 Descending Chicago Center
Fri 03:41:03 PM 44.0550 -88.0758 64° Northeast 424 488 38,700 -1,568 Descending Minneapolis Center
Fri 03:42:05 PM 44.1061 -87.9194 65° Northeast 436 502 37,100 -1,548 Descending Minneapolis Center
Fri 03:43:07 PM 44.1556 -87.7578 67° East 448 516 35,500 -1,694 Descending Minneapolis Center
Fri 03:44:09 PM 44.1978 -87.6006 69° East 436 502 33,600 -1,839 Descending Minneapolis Center
Fri 03:45:11 PM 44.2400 -87.4517 68° East 415 478 31,700 -1,790 Descending Minneapolis Center
Fri 03:46:13 PM 44.2753 -87.3269 68° East 414 476 29,900 -2,784 Descending Minneapolis Center
Fri 03:47:16 PM 44.3322 -87.1161 69° East 430 495 25,900 -3,360 Descending Minneapolis Center
Fri 03:48:18 PM 44.3739 -86.9653 69° East 423 487 22,900 -2,855 Descending Minneapolis Center
Fri 03:49:20 PM 44.4125 -86.8222 69° East 400 460 20,000 -2,806 Descending Minneapolis Center
Fri 03:50:22 PM 44.4522 -86.6783 69° East 398 458 17,100 -2,758 Descending Minneapolis Center
Fri 03:51:24 PM 44.4886 -86.5433 69° East 380 437 14,300 -2,903 Descending Minneapolis Center
Fri 03:52:26 PM 44.5278 -86.3958 70° East 342 394 11,100 -2,516 Descending Minneapolis Center
Fri 03:53:28 PM 44.5569 -86.2872 69° East 307 353 9,100 -1,839 Descending Minneapolis Center
Fri 03:54:30 PM 44.5839 -86.1861 69° East 284 327 7,300 -1,694 Descending Minneapolis Center
Fri 03:55:32 PM 44.6103 -86.0878 69° East 276 318 5,600 -1,548 Descending Minneapolis Center
Fri 03:56:34 PM 44.6350 -85.9922 70° East 270 311 4,100 -919 Descending Minneapolis Center
Fri 03:57:36 PM 44.6689 -85.8819 67° East 264 304 3,700 -629 Descending Minneapolis Center
Fri 03:58:38 PM 44.7139 -85.8122 48° Northeast 250 288 2,800 -532 Descending Minneapolis Center
Fri 03:59:40 PM 44.7464 -85.7483 54° Northeast 224 258 2,600 -435 Descending Minneapolis Center
Fri 04:00:42 PM 44.7456 -85.6800 91° East 191 220 1,900 -629 Descending Minneapolis Center
Fri 04:01:44 PM 44.7428 -85.6197 94° East 171 197 1,300 -581 Descending Minneapolis Center

Login

Don't have an account? Register now (free) for customized features, flight alerts, and more!